sensor_id;sensor_type;location;lat;lon;timestamp;temperature;humidity
4635;DHT22;2330;48.158;11.816;2024-02-14T00:00:19;2.20;98.50
4635;DHT22;2330;48.158;11.816;2024-02-14T00:02:47;2.20;98.50
4635;DHT22;2330;48.158;11.816;2024-02-14T00:05:17;2.30;98.50
4635;DHT22;2330;48.158;11.816;2024-02-14T00:07:45;2.40;98.50
4635;DHT22;2330;48.158;11.816;2024-02-14T00:10:11;2.30;98.50
4635;DHT22;2330;48.158;11.816;2024-02-14T00:12:38;2.20;98.50
4635;DHT22;2330;48.158;11.816;2024-02-14T00:15:06;2.20;98.50
4635;DHT22;2330;48.158;11.816;2024-02-14T00:17:34;2.10;98.50
4635;DHT22;2330;48.158;11.816;2024-02-14T00:20:02;2.10;98.50
4635;DHT22;2330;48.158;11.816;2024-02-14T00:22:30;2.00;98.50
4635;DHT22;2330;48.158;11.816;2024-02-14T00:24:57;2.00;98.50
4635;DHT22;2330;48.158;11.816;2024-02-14T00:27:24;2.00;98.50
4635;DHT22;2330;48.158;11.816;2024-02-14T00:29:53;2.00;98.50
4635;DHT22;2330;48.158;11.816;2024-02-14T00:32:21;2.00;98.50
4635;DHT22;2330;48.158;11.816;2024-02-14T00:34:48;2.00;98.50
4635;DHT22;2330;48.158;11.816;2024-02-14T00:37:17;2.00;98.50
4635;DHT22;2330;48.158;11.816;2024-02-14T00:39:43;2.00;98.50
4635;DHT22;2330;48.158;11.816;2024-02-14T00:42:10;2.00;98.50
4635;DHT22;2330;48.158;11.816;2024-02-14T00:44:37;2.00;98.50
4635;DHT22;2330;48.158;11.816;2024-02-14T00:47:04;2.00;98.50
4635;DHT22;2330;48.158;11.816;2024-02-14T00:49:34;2.10;98.50
4635;DHT22;2330;48.158;11.816;2024-02-14T00:52:02;2.10;98.50
4635;DHT22;2330;48.158;11.816;2024-02-14T00:54:29;2.10;98.50
4635;DHT22;2330;48.158;11.816;2024-02-14T00:56:55;2.10;98.50
4635;DHT22;2330;48.158;11.816;2024-02-14T00:59:22;2.10;98.50
4635;DHT22;2330;48.158;11.816;2024-02-14T01:01:49;2.10;98.50
4635;DHT22;2330;48.158;11.816;2024-02-14T01:04:17;2.00;98.50
4635;DHT22;2330;48.158;11.816;2024-02-14T01:06:44;2.00;98.50
4635;DHT22;2330;48.158;11.816;2024-02-14T01:09:11;2.00;98.50
4635;DHT22;2330;48.158;11.816;2024-02-14T01:11:38;2.00;98.50
4635;DHT22;2330;48.158;11.816;2024-02-14T01:14:05;2.00;98.50
4635;DHT22;2330;48.158;11.816;2024-02-14T01:16:33;2.00;98.50
4635;DHT22;2330;48.158;11.816;2024-02-14T01:19:00;2.00;98.50
4635;DHT22;2330;48.158;11.816;2024-02-14T01:21:27;2.00;98.50
4635;DHT22;2330;48.158;11.816;2024-02-14T01:23:54;2.00;98.50
4635;DHT22;2330;48.158;11.816;2024-02-14T01:26:20;2.00;98.50
4635;DHT22;2330;48.158;11.816;2024-02-14T01:28:47;2.00;98.50
4635;DHT22;2330;48.158;11.816;2024-02-14T01:31:15;2.00;98.50
4635;DHT22;2330;48.158;11.816;2024-02-14T01:33:42;2.00;98.50
4635;DHT22;2330;48.158;11.816;2024-02-14T01:36:10;2.10;98.50
4635;DHT22;2330;48.158;11.816;2024-02-14T01:38:37;2.10;98.50
4635;DHT22;2330;48.158;11.816;2024-02-14T01:41:05;2.10;98.50
4635;DHT22;2330;48.158;11.816;2024-02-14T01:43:32;2.20;98.50
4635;DHT22;2330;48.158;11.816;2024-02-14T01:46:07;2.20;98.50
4635;DHT22;2330;48.158;11.816;2024-02-14T01:48:34;2.20;98.50
4635;DHT22;2330;48.158;11.816;2024-02-14T01:51:03;2.20;98.50
4635;DHT22;2330;48.158;11.816;2024-02-14T01:53:32;2.20;98.50
4635;DHT22;2330;48.158;11.816;2024-02-14T01:55:59;2.20;98.50
4635;DHT22;2330;48.158;11.816;2024-02-14T01:58:28;2.20;98.50
4635;DHT22;2330;48.158;11.816;2024-02-14T02:00:56;2.20;98.50
4635;DHT22;2330;48.158;11.816;2024-02-14T02:03:27;2.30;98.50
4635;DHT22;2330;48.158;11.816;2024-02-14T02:05:55;2.30;98.50
4635;DHT22;2330;48.158;11.816;2024-02-14T02:08:22;2.40;98.50
4635;DHT22;2330;48.158;11.816;2024-02-14T02:10:49;2.40;98.50
4635;DHT22;2330;48.158;11.816;2024-02-14T02:13:16;2.40;98.50
4635;DHT22;2330;48.158;11.816;2024-02-14T02:15:43;2.50;98.50
4635;DHT22;2330;48.158;11.816;2024-02-14T02:18:13;2.50;98.50
4635;DHT22;2330;48.158;11.816;2024-02-14T02:20:41;2.60;98.50
4635;DHT22;2330;48.158;11.816;2024-02-14T02:23:11;2.60;98.50
4635;DHT22;2330;48.158;11.816;2024-02-14T02:25:42;2.60;98.50
4635;DHT22;2330;48.158;11.816;2024-02-14T02:28:09;2.60;98.50
4635;DHT22;2330;48.158;11.816;2024-02-14T02:30:36;2.60;98.50
4635;DHT22;2330;48.158;11.816;2024-02-14T02:33:04;2.60;98.50
4635;DHT22;2330;48.158;11.816;2024-02-14T02:35:32;2.60;98.50
4635;DHT22;2330;48.158;11.816;2024-02-14T02:37:59;2.50;98.50
4635;DHT22;2330;48.158;11.816;2024-02-14T02:40:26;2.60;98.50
4635;DHT22;2330;48.158;11.816;2024-02-14T02:42:54;2.70;98.50
4635;DHT22;2330;48.158;11.816;2024-02-14T02:45:21;2.80;98.50
4635;DHT22;2330;48.158;11.816;2024-02-14T02:47:48;2.90;98.50
4635;DHT22;2330;48.158;11.816;2024-02-14T02:50:18;2.90;98.50
4635;DHT22;2330;48.158;11.816;2024-02-14T02:52:47;2.80;98.50
4635;DHT22;2330;48.158;11.816;2024-02-14T02:55:14;3.00;98.50
4635;DHT22;2330;48.158;11.816;2024-02-14T02:57:44;3.30;98.50
4635;DHT22;2330;48.158;11.816;2024-02-14T03:00:12;3.40;98.50
4635;DHT22;2330;48.158;11.816;2024-02-14T03:02:40;3.10;98.50
4635;DHT22;2330;48.158;11.816;2024-02-14T03:05:12;2.90;98.50
4635;DHT22;2330;48.158;11.816;2024-02-14T03:07:46;2.80;98.50
4635;DHT22;2330;48.158;11.816;2024-02-14T03:10:15;2.80;98.50
4635;DHT22;2330;48.158;11.816;2024-02-14T03:12:48;2.80;98.50
4635;DHT22;2330;48.158;11.816;2024-02-14T03:15:16;2.80;98.50
4635;DHT22;2330;48.158;11.816;2024-02-14T03:17:44;2.60;98.50
4635;DHT22;2330;48.158;11.816;2024-02-14T03:20:11;2.50;98.50
4635;DHT22;2330;48.158;11.816;2024-02-14T03:22:44;2.50;98.50
4635;DHT22;2330;48.158;11.816;2024-02-14T03:25:16;2.50;98.50
4635;DHT22;2330;48.158;11.816;2024-02-14T03:27:43;2.50;98.50
4635;DHT22;2330;48.158;11.816;2024-02-14T03:30:15;2.40;98.50
4635;DHT22;2330;48.158;11.816;2024-02-14T03:32:45;2.50;98.50
4635;DHT22;2330;48.158;11.816;2024-02-14T03:35:13;2.60;98.50
4635;DHT22;2330;48.158;11.816;2024-02-14T03:37:41;2.50;98.50
4635;DHT22;2330;48.158;11.816;2024-02-14T03:40:09;2.40;98.50
4635;DHT22;2330;48.158;11.816;2024-02-14T03:42:36;2.40;98.50
4635;DHT22;2330;48.158;11.816;2024-02-14T03:45:07;2.40;98.50
4635;DHT22;2330;48.158;11.816;2024-02-14T03:47:34;2.40;98.50
4635;DHT22;2330;48.158;11.816;2024-02-14T03:50:02;2.50;98.50
4635;DHT22;2330;48.158;11.816;2024-02-14T03:52:31;2.40;98.50
4635;DHT22;2330;48.158;11.816;2024-02-14T03:55:01;2.50;98.50
4635;DHT22;2330;48.158;11.816;2024-02-14T03:57:28;2.50;98.50
4635;DHT22;2330;48.158;11.816;2024-02-14T03:59:55;2.50;98.50
4635;DHT22;2330;48.158;11.816;2024-02-14T04:02:22;2.50;98.50
4635;DHT22;2330;48.158;11.816;2024-02-14T04:04:55;2.60;98.50
4635;DHT22;2330;48.158;11.816;2024-02-14T04:07:21;2.60;98.50
4635;DHT22;2330;48.158;11.816;2024-02-14T04:09:48;2.60;98.50
4635;DHT22;2330;48.158;11.816;2024-02-14T04:12:15;2.80;98.50
4635;DHT22;2330;48.158;11.816;2024-02-14T04:14:42;2.60;98.50
4635;DHT22;2330;48.158;11.816;2024-02-14T04:17:09;2.50;98.50
4635;DHT22;2330;48.158;11.816;2024-02-14T04:19:38;2.50;98.50
4635;DHT22;2330;48.158;11.816;2024-02-14T04:22:05;2.70;98.50
4635;DHT22;2330;48.158;11.816;2024-02-14T04:24:35;2.80;98.50
4635;DHT22;2330;48.158;11.816;2024-02-14T04:27:03;2.70;98.50
4635;DHT22;2330;48.158;11.816;2024-02-14T04:29:32;2.50;98.50
4635;DHT22;2330;48.158;11.816;2024-02-14T04:32:01;2.30;98.50
4635;DHT22;2330;48.158;11.816;2024-02-14T04:34:28;2.30;98.50
4635;DHT22;2330;48.158;11.816;2024-02-14T04:36:55;2.30;98.50
4635;DHT22;2330;48.158;11.816;2024-02-14T04:39:23;2.30;98.50
4635;DHT22;2330;48.158;11.816;2024-02-14T04:41:50;2.30;98.50
4635;DHT22;2330;48.158;11.816;2024-02-14T04:44:27;2.30;98.50
4635;DHT22;2330;48.158;11.816;2024-02-14T04:46:54;2.20;98.50
4635;DHT22;2330;48.158;11.816;2024-02-14T04:49:23;2.10;98.50
4635;DHT22;2330;48.158;11.816;2024-02-14T04:51:51;2.00;98.50
4635;DHT22;2330;48.158;11.816;2024-02-14T04:54:18;1.90;98.50
4635;DHT22;2330;48.158;11.816;2024-02-14T04:56:45;1.80;98.50
4635;DHT22;2330;48.158;11.816;2024-02-14T04:59:15;1.80;98.50
4635;DHT22;2330;48.158;11.816;2024-02-14T05:01:42;1.80;98.50
4635;DHT22;2330;48.158;11.816;2024-02-14T05:04:09;1.80;98.50
4635;DHT22;2330;48.158;11.816;2024-02-14T05:06:36;1.80;98.50
4635;DHT22;2330;48.158;11.816;2024-02-14T05:09:03;1.90;98.50
4635;DHT22;2330;48.158;11.816;2024-02-14T05:11:30;2.00;98.50
4635;DHT22;2330;48.158;11.816;2024-02-14T05:13:56;2.10;98.50
4635;DHT22;2330;48.158;11.816;2024-02-14T05:16:24;2.20;98.50
4635;DHT22;2330;48.158;11.816;2024-02-14T05:18:51;2.40;98.50
4635;DHT22;2330;48.158;11.816;2024-02-14T05:21:20;2.40;98.50
4635;DHT22;2330;48.158;11.816;2024-02-14T05:23:48;2.40;98.50
4635;DHT22;2330;48.158;11.816;2024-02-14T05:26:16;2.50;98.50
4635;DHT22;2330;48.158;11.816;2024-02-14T05:28:43;2.60;98.50
4635;DHT22;2330;48.158;11.816;2024-02-14T05:31:10;2.60;98.50
4635;DHT22;2330;48.158;11.816;2024-02-14T05:33:37;2.60;98.50
4635;DHT22;2330;48.158;11.816;2024-02-14T05:36:04;2.70;98.50
4635;DHT22;2330;48.158;11.816;2024-02-14T05:38:32;2.70;98.50
4635;DHT22;2330;48.158;11.816;2024-02-14T05:41:01;2.70;98.50
4635;DHT22;2330;48.158;11.816;2024-02-14T05:43:27;2.80;98.50
4635;DHT22;2330;48.158;11.816;2024-02-14T05:45:54;2.90;98.50
4635;DHT22;2330;48.158;11.816;2024-02-14T05:48:22;2.90;98.50
4635;DHT22;2330;48.158;11.816;2024-02-14T05:50:49;2.80;98.50
4635;DHT22;2330;48.158;11.816;2024-02-14T05:53:16;2.80;98.50
4635;DHT22;2330;48.158;11.816;2024-02-14T05:55:43;2.70;98.50
4635;DHT22;2330;48.158;11.816;2024-02-14T05:58:09;2.70;98.50
4635;DHT22;2330;48.158;11.816;2024-02-14T06:00:38;2.80;98.50
4635;DHT22;2330;48.158;11.816;2024-02-14T06:03:05;2.90;98.50
4635;DHT22;2330;48.158;11.816;2024-02-14T06:05:34;2.80;98.50
4635;DHT22;2330;48.158;11.816;2024-02-14T06:08:01;2.80;98.50
4635;DHT22;2330;48.158;11.816;2024-02-14T06:10:30;2.90;98.50
4635;DHT22;2330;48.158;11.816;2024-02-14T06:12:56;3.00;98.50
4635;DHT22;2330;48.158;11.816;2024-02-14T06:15:23;3.00;98.50
4635;DHT22;2330;48.158;11.816;2024-02-14T06:17:50;2.90;98.50
4635;DHT22;2330;48.158;11.816;2024-02-14T06:20:18;2.90;98.50
4635;DHT22;2330;48.158;11.816;2024-02-14T06:22:45;3.00;98.50
4635;DHT22;2330;48.158;11.816;2024-02-14T06:25:26;3.00;98.50
4635;DHT22;2330;48.158;11.816;2024-02-14T06:27:53;3.00;98.50
4635;DHT22;2330;48.158;11.816;2024-02-14T06:30:23;3.10;98.50
4635;DHT22;2330;48.158;11.816;2024-02-14T06:32:51;3.10;98.50
4635;DHT22;2330;48.158;11.816;2024-02-14T06:35:18;3.10;98.50
4635;DHT22;2330;48.158;11.816;2024-02-14T06:37:47;3.20;98.50
4635;DHT22;2330;48.158;11.816;2024-02-14T06:40:25;3.30;98.50
4635;DHT22;2330;48.158;11.816;2024-02-14T06:42:54;3.40;98.50
4635;DHT22;2330;48.158;11.816;2024-02-14T06:45:21;3.30;98.50
4635;DHT22;2330;48.158;11.816;2024-02-14T06:47:48;3.30;98.50
4635;DHT22;2330;48.158;11.816;2024-02-14T06:50:15;3.40;98.50
4635;DHT22;2330;48.158;11.816;2024-02-14T06:52:42;3.40;98.50
4635;DHT22;2330;48.158;11.816;2024-02-14T06:55:09;3.50;98.50
4635;DHT22;2330;48.158;11.816;2024-02-14T06:57:35;3.50;98.50
4635;DHT22;2330;48.158;11.816;2024-02-14T07:00:03;3.50;98.50
4635;DHT22;2330;48.158;11.816;2024-02-14T07:02:33;3.60;98.50
4635;DHT22;2330;48.158;11.816;2024-02-14T07:05:00;3.60;98.50
4635;DHT22;2330;48.158;11.816;2024-02-14T07:07:28;3.70;98.50
4635;DHT22;2330;48.158;11.816;2024-02-14T07:09:55;3.90;98.50
4635;DHT22;2330;48.158;11.816;2024-02-14T07:12:21;4.20;98.50
4635;DHT22;2330;48.158;11.816;2024-02-14T07:14:48;4.20;98.50
4635;DHT22;2330;48.158;11.816;2024-02-14T07:17:15;4.20;98.50
4635;DHT22;2330;48.158;11.816;2024-02-14T07:19:42;4.40;98.50
4635;DHT22;2330;48.158;11.816;2024-02-14T07:22:14;4.50;98.50
4635;DHT22;2330;48.158;11.816;2024-02-14T07:24:42;4.60;98.50
4635;DHT22;2330;48.158;11.816;2024-02-14T07:27:09;4.60;98.50
4635;DHT22;2330;48.158;11.816;2024-02-14T07:29:37;4.70;98.50
4635;DHT22;2330;48.158;11.816;2024-02-14T07:32:12;4.70;98.50
4635;DHT22;2330;48.158;11.816;2024-02-14T07:34:39;4.70;98.50
4635;DHT22;2330;48.158;11.816;2024-02-14T07:37:07;4.80;98.50
4635;DHT22;2330;48.158;11.816;2024-02-14T07:39:34;4.90;98.50
4635;DHT22;2330;48.158;11.816;2024-02-14T07:42:04;5.00;98.50
4635;DHT22;2330;48.158;11.816;2024-02-14T07:44:31;5.00;98.50
4635;DHT22;2330;48.158;11.816;2024-02-14T07:46:58;5.00;98.50
4635;DHT22;2330;48.158;11.816;2024-02-14T07:49:29;5.10;98.50
4635;DHT22;2330;48.158;11.816;2024-02-14T07:51:56;5.00;98.50
4635;DHT22;2330;48.158;11.816;2024-02-14T07:54:23;5.10;98.50
4635;DHT22;2330;48.158;11.816;2024-02-14T07:56:50;5.10;98.50
4635;DHT22;2330;48.158;11.816;2024-02-14T07:59:17;5.10;98.50
4635;DHT22;2330;48.158;11.816;2024-02-14T08:01:43;5.10;98.50
4635;DHT22;2330;48.158;11.816;2024-02-14T08:04:10;5.20;98.50
4635;DHT22;2330;48.158;11.816;2024-02-14T08:06:37;5.20;98.50
4635;DHT22;2330;48.158;11.816;2024-02-14T08:09:04;5.30;98.50
4635;DHT22;2330;48.158;11.816;2024-02-14T08:11:33;5.30;98.50
4635;DHT22;2330;48.158;11.816;2024-02-14T08:14:00;5.40;98.50
4635;DHT22;2330;48.158;11.816;2024-02-14T08:16:27;5.40;98.50
4635;DHT22;2330;48.158;11.816;2024-02-14T08:18:54;5.40;98.50
4635;DHT22;2330;48.158;11.816;2024-02-14T08:21:27;5.50;98.50
4635;DHT22;2330;48.158;11.816;2024-02-14T08:23:57;5.60;98.50
4635;DHT22;2330;48.158;11.816;2024-02-14T08:26:27;5.60;98.50
4635;DHT22;2330;48.158;11.816;2024-02-14T08:28:55;5.50;98.50
4635;DHT22;2330;48.158;11.816;2024-02-14T08:31:22;5.50;98.50
4635;DHT22;2330;48.158;11.816;2024-02-14T08:33:49;5.60;98.50
4635;DHT22;2330;48.158;11.816;2024-02-14T08:36:17;5.80;98.50
4635;DHT22;2330;48.158;11.816;2024-02-14T08:38:49;5.90;98.50
4635;DHT22;2330;48.158;11.816;2024-02-14T08:41:19;6.00;98.50
4635;DHT22;2330;48.158;11.816;2024-02-14T08:43:45;6.00;98.50
4635;DHT22;2330;48.158;11.816;2024-02-14T08:46:13;6.10;98.50
4635;DHT22;2330;48.158;11.816;2024-02-14T08:48:42;6.10;98.50
4635;DHT22;2330;48.158;11.816;2024-02-14T08:51:15;6.20;98.50
4635;DHT22;2330;48.158;11.816;2024-02-14T08:53:42;6.20;98.50
4635;DHT22;2330;48.158;11.816;2024-02-14T08:56:10;6.20;98.50
4635;DHT22;2330;48.158;11.816;2024-02-14T08:58:37;6.30;98.50
4635;DHT22;2330;48.158;11.816;2024-02-14T09:01:04;6.40;98.50
4635;DHT22;2330;48.158;11.816;2024-02-14T09:03:41;6.50;98.50
4635;DHT22;2330;48.158;11.816;2024-02-14T09:06:10;6.50;98.50
4635;DHT22;2330;48.158;11.816;2024-02-14T09:08:37;6.60;98.50
4635;DHT22;2330;48.158;11.816;2024-02-14T09:11:04;6.80;98.50
4635;DHT22;2330;48.158;11.816;2024-02-14T09:13:31;6.80;98.50
4635;DHT22;2330;48.158;11.816;2024-02-14T09:15:57;6.90;98.50
4635;DHT22;2330;48.158;11.816;2024-02-14T09:18:24;6.90;98.50
4635;DHT22;2330;48.158;11.816;2024-02-14T09:20:52;7.10;98.50
4635;DHT22;2330;48.158;11.816;2024-02-14T09:23:19;7.10;97.70
4635;DHT22;2330;48.158;11.816;2024-02-14T09:25:47;7.20;98.50
4635;DHT22;2330;48.158;11.816;2024-02-14T09:28:15;7.30;98.40
4635;DHT22;2330;48.158;11.816;2024-02-14T09:30:42;7.40;96.80
4635;DHT22;2330;48.158;11.816;2024-02-14T09:33:10;7.60;95.60
4635;DHT22;2330;48.158;11.816;2024-02-14T09:35:38;7.80;95.50
4635;DHT22;2330;48.158;11.816;2024-02-14T09:38:06;8.00;95.30
4635;DHT22;2330;48.158;11.816;2024-02-14T09:40:33;8.10;94.50
4635;DHT22;2330;48.158;11.816;2024-02-14T09:43:03;8.20;93.30
4635;DHT22;2330;48.158;11.816;2024-02-14T09:45:31;8.30;93.90
4635;DHT22;2330;48.158;11.816;2024-02-14T09:48:00;8.40;92.70
4635;DHT22;2330;48.158;11.816;2024-02-14T09:50:29;8.40;93.40
4635;DHT22;2330;48.158;11.816;2024-02-14T09:52:58;8.50;93.70
4635;DHT22;2330;48.158;11.816;2024-02-14T09:55:25;8.60;92.80
4635;DHT22;2330;48.158;11.816;2024-02-14T09:57:54;8.70;92.70
4635;DHT22;2330;48.158;11.816;2024-02-14T10:00:22;8.90;92.10
4635;DHT22;2330;48.158;11.816;2024-02-14T10:02:50;9.10;92.30
4635;DHT22;2330;48.158;11.816;2024-02-14T10:05:17;9.20;92.10
4635;DHT22;2330;48.158;11.816;2024-02-14T10:07:44;9.30;91.10
4635;DHT22;2330;48.158;11.816;2024-02-14T10:10:11;9.50;91.70
4635;DHT22;2330;48.158;11.816;2024-02-14T10:12:38;9.70;92.00
4635;DHT22;2330;48.158;11.816;2024-02-14T10:15:08;9.80;90.90
4635;DHT22;2330;48.158;11.816;2024-02-14T10:17:35;9.80;90.20
4635;DHT22;2330;48.158;11.816;2024-02-14T10:20:03;9.90;90.70
4635;DHT22;2330;48.158;11.816;2024-02-14T10:22:36;10.00;91.00
4635;DHT22;2330;48.158;11.816;2024-02-14T10:25:04;10.00;90.60
4635;DHT22;2330;48.158;11.816;2024-02-14T10:27:39;10.00;90.70
4635;DHT22;2330;48.158;11.816;2024-02-14T10:30:07;10.10;91.00
4635;DHT22;2330;48.158;11.816;2024-02-14T10:32:39;10.10;91.40
4635;DHT22;2330;48.158;11.816;2024-02-14T10:35:15;10.10;91.10
4635;DHT22;2330;48.158;11.816;2024-02-14T10:37:44;10.10;90.60
4635;DHT22;2330;48.158;11.816;2024-02-14T10:40:11;10.10;90.80
4635;DHT22;2330;48.158;11.816;2024-02-14T10:42:38;10.10;91.10
4635;DHT22;2330;48.158;11.816;2024-02-14T10:45:05;10.20;91.50
4635;DHT22;2330;48.158;11.816;2024-02-14T10:47:36;10.30;91.20
4635;DHT22;2330;48.158;11.816;2024-02-14T10:50:07;10.50;91.10
4635;DHT22;2330;48.158;11.816;2024-02-14T10:52:35;10.60;92.00
4635;DHT22;2330;48.158;11.816;2024-02-14T10:55:04;10.80;90.80
4635;DHT22;2330;48.158;11.816;2024-02-14T10:57:31;11.20;89.10
4635;DHT22;2330;48.158;11.816;2024-02-14T11:00:09;11.60;87.50
4635;DHT22;2330;48.158;11.816;2024-02-14T11:02:37;11.80;87.70
4635;DHT22;2330;48.158;11.816;2024-02-14T11:05:04;11.90;88.00
4635;DHT22;2330;48.158;11.816;2024-02-14T11:07:31;12.10;87.60
4635;DHT22;2330;48.158;11.816;2024-02-14T11:10:05;12.30;86.30
4635;DHT22;2330;48.158;11.816;2024-02-14T11:12:35;12.60;86.60
4635;DHT22;2330;48.158;11.816;2024-02-14T11:17:39;12.50;84.20
4635;DHT22;2330;48.158;11.816;2024-02-14T11:22:58;12.80;84.90
4635;DHT22;2330;48.158;11.816;2024-02-14T11:25:31;12.80;85.40
4635;DHT22;2330;48.158;11.816;2024-02-14T11:27:58;13.00;85.40
4635;DHT22;2330;48.158;11.816;2024-02-14T11:30:29;13.20;85.10
4635;DHT22;2330;48.158;11.816;2024-02-14T11:33:16;13.30;84.20
4635;DHT22;2330;48.158;11.816;2024-02-14T11:35:46;13.50;83.90
4635;DHT22;2330;48.158;11.816;2024-02-14T11:38:14;13.50;83.70
4635;DHT22;2330;48.158;11.816;2024-02-14T11:40:41;13.30;84.50
4635;DHT22;2330;48.158;11.816;2024-02-14T11:43:16;13.50;85.50
4635;DHT22;2330;48.158;11.816;2024-02-14T11:45:49;14.00;84.90
4635;DHT22;2330;48.158;11.816;2024-02-14T11:48:17;14.00;84.00
4635;DHT22;2330;48.158;11.816;2024-02-14T11:50:45;13.90;83.30
4635;DHT22;2330;48.158;11.816;2024-02-14T11:53:14;13.50;84.70
4635;DHT22;2330;48.158;11.816;2024-02-14T11:55:43;13.40;85.70
4635;DHT22;2330;48.158;11.816;2024-02-14T11:58:11;13.50;86.50
4635;DHT22;2330;48.158;11.816;2024-02-14T12:00:45;13.30;85.80
4635;DHT22;2330;48.158;11.816;2024-02-14T12:03:25;13.30;85.80
4635;DHT22;2330;48.158;11.816;2024-02-14T12:05:53;13.30;86.10
4635;DHT22;2330;48.158;11.816;2024-02-14T12:08:21;13.30;86.40
4635;DHT22;2330;48.158;11.816;2024-02-14T12:10:49;13.30;87.00
4635;DHT22;2330;48.158;11.816;2024-02-14T12:13:22;13.20;87.40
4635;DHT22;2330;48.158;11.816;2024-02-14T12:15:50;13.10;87.60
4635;DHT22;2330;48.158;11.816;2024-02-14T12:18:19;13.10;87.70
4635;DHT22;2330;48.158;11.816;2024-02-14T12:20:47;13.20;88.50
4635;DHT22;2330;48.158;11.816;2024-02-14T12:23:22;13.20;89.60
4635;DHT22;2330;48.158;11.816;2024-02-14T12:25:50;13.20;88.60
4635;DHT22;2330;48.158;11.816;2024-02-14T12:28:17;13.20;88.50
4635;DHT22;2330;48.158;11.816;2024-02-14T12:30:53;13.10;87.60
4635;DHT22;2330;48.158;11.816;2024-02-14T12:33:26;13.00;87.90
4635;DHT22;2330;48.158;11.816;2024-02-14T12:35:55;13.00;88.10
4635;DHT22;2330;48.158;11.816;2024-02-14T12:38:24;12.90;88.30
4635;DHT22;2330;48.158;11.816;2024-02-14T12:40:51;12.90;88.70
4635;DHT22;2330;48.158;11.816;2024-02-14T12:43:21;12.90;88.90
4635;DHT22;2330;48.158;11.816;2024-02-14T12:45:48;13.00;89.10
4635;DHT22;2330;48.158;11.816;2024-02-14T12:48:23;13.10;88.80
4635;DHT22;2330;48.158;11.816;2024-02-14T12:50:51;13.20;89.50
4635;DHT22;2330;48.158;11.816;2024-02-14T12:53:18;13.40;89.00
4635;DHT22;2330;48.158;11.816;2024-02-14T12:55:46;13.40;87.90
4635;DHT22;2330;48.158;11.816;2024-02-14T12:58:14;13.40;88.00
4635;DHT22;2330;48.158;11.816;2024-02-14T13:00:41;13.40;87.50
4635;DHT22;2330;48.158;11.816;2024-02-14T13:03:10;13.70;86.80
4635;DHT22;2330;48.158;11.816;2024-02-14T13:05:41;13.80;86.20
4635;DHT22;2330;48.158;11.816;2024-02-14T13:08:08;13.90;87.00
4635;DHT22;2330;48.158;11.816;2024-02-14T13:10:38;13.80;87.20
4635;DHT22;2330;48.158;11.816;2024-02-14T13:13:05;13.60;87.60
4635;DHT22;2330;48.158;11.816;2024-02-14T13:15:31;13.40;87.50
4635;DHT22;2330;48.158;11.816;2024-02-14T13:17:58;13.20;88.30
4635;DHT22;2330;48.158;11.816;2024-02-14T13:20:27;13.00;91.40
4635;DHT22;2330;48.158;11.816;2024-02-14T13:22:55;12.80;93.40
4635;DHT22;2330;48.158;11.816;2024-02-14T13:25:22;12.60;95.20
4635;DHT22;2330;48.158;11.816;2024-02-14T13:27:48;12.50;94.00
4635;DHT22;2330;48.158;11.816;2024-02-14T13:30:15;12.40;94.60
4635;DHT22;2330;48.158;11.816;2024-02-14T13:32:42;12.30;96.40
4635;DHT22;2330;48.158;11.816;2024-02-14T13:35:09;12.30;96.80
4635;DHT22;2330;48.158;11.816;2024-02-14T13:37:38;12.20;98.40
4635;DHT22;2330;48.158;11.816;2024-02-14T13:40:05;12.10;98.50
4635;DHT22;2330;48.158;11.816;2024-02-14T13:42:37;12.10;98.50
4635;DHT22;2330;48.158;11.816;2024-02-14T13:45:07;12.10;98.50
4635;DHT22;2330;48.158;11.816;2024-02-14T13:47:38;12.10;98.50
4635;DHT22;2330;48.158;11.816;2024-02-14T13:50:13;12.10;98.50
4635;DHT22;2330;48.158;11.816;2024-02-14T13:52:40;12.20;98.50
4635;DHT22;2330;48.158;11.816;2024-02-14T13:55:07;12.20;98.20
4635;DHT22;2330;48.158;11.816;2024-02-14T13:57:38;12.20;98.50
4635;DHT22;2330;48.158;11.816;2024-02-14T14:00:08;12.30;97.90
4635;DHT22;2330;48.158;11.816;2024-02-14T14:02:38;12.40;98.50
4635;DHT22;2330;48.158;11.816;2024-02-14T14:05:09;12.50;98.50
4635;DHT22;2330;48.158;11.816;2024-02-14T14:07:40;12.50;98.10
4635;DHT22;2330;48.158;11.816;2024-02-14T14:10:23;12.60;98.20
4635;DHT22;2330;48.158;11.816;2024-02-14T14:12:53;12.70;98.20
4635;DHT22;2330;48.158;11.816;2024-02-14T14:15:20;12.80;97.50
4635;DHT22;2330;48.158;11.816;2024-02-14T14:17:48;13.00;97.20
4635;DHT22;2330;48.158;11.816;2024-02-14T14:20:15;13.50;96.40
4635;DHT22;2330;48.158;11.816;2024-02-14T14:22:43;13.90;94.50
4635;DHT22;2330;48.158;11.816;2024-02-14T14:25:09;14.00;93.10
4635;DHT22;2330;48.158;11.816;2024-02-14T14:27:36;13.90;91.70
4635;DHT22;2330;48.158;11.816;2024-02-14T14:30:03;13.70;92.60
4635;DHT22;2330;48.158;11.816;2024-02-14T14:32:31;13.50;92.90
4635;DHT22;2330;48.158;11.816;2024-02-14T14:34:58;13.30;93.50
4635;DHT22;2330;48.158;11.816;2024-02-14T14:37:24;13.10;93.80
4635;DHT22;2330;48.158;11.816;2024-02-14T14:39:51;13.10;94.60
4635;DHT22;2330;48.158;11.816;2024-02-14T14:42:18;12.90;94.00
4635;DHT22;2330;48.158;11.816;2024-02-14T14:44:45;12.80;94.00
4635;DHT22;2330;48.158;11.816;2024-02-14T14:47:12;12.80;93.80
4635;DHT22;2330;48.158;11.816;2024-02-14T14:49:39;12.70;94.30
4635;DHT22;2330;48.158;11.816;2024-02-14T14:52:06;12.70;94.80
4635;DHT22;2330;48.158;11.816;2024-02-14T14:54:33;12.70;95.70
4635;DHT22;2330;48.158;11.816;2024-02-14T14:57:00;12.60;96.30
4635;DHT22;2330;48.158;11.816;2024-02-14T14:59:31;12.60;96.50
4635;DHT22;2330;48.158;11.816;2024-02-14T15:01:57;12.50;96.50
4635;DHT22;2330;48.158;11.816;2024-02-14T15:04:24;12.50;97.70
4635;DHT22;2330;48.158;11.816;2024-02-14T15:06:51;12.50;97.80
4635;DHT22;2330;48.158;11.816;2024-02-14T15:09:19;12.50;97.90
4635;DHT22;2330;48.158;11.816;2024-02-14T15:11:47;12.50;98.30
4635;DHT22;2330;48.158;11.816;2024-02-14T15:14:14;12.50;98.30
4635;DHT22;2330;48.158;11.816;2024-02-14T15:16:40;12.50;98.50
4635;DHT22;2330;48.158;11.816;2024-02-14T15:19:08;12.50;98.50
4635;DHT22;2330;48.158;11.816;2024-02-14T15:21:36;12.60;98.50
4635;DHT22;2330;48.158;11.816;2024-02-14T15:24:03;12.70;98.50
4635;DHT22;2330;48.158;11.816;2024-02-14T15:26:30;12.80;98.40
4635;DHT22;2330;48.158;11.816;2024-02-14T15:29:05;12.80;98.10
4635;DHT22;2330;48.158;11.816;2024-02-14T15:31:51;12.70;98.00
4635;DHT22;2330;48.158;11.816;2024-02-14T15:34:37;12.60;98.30
4635;DHT22;2330;48.158;11.816;2024-02-14T15:37:04;12.50;98.50
4635;DHT22;2330;48.158;11.816;2024-02-14T15:39:32;12.40;98.50
4635;DHT22;2330;48.158;11.816;2024-02-14T15:41:58;12.20;98.50
4635;DHT22;2330;48.158;11.816;2024-02-14T15:44:25;12.10;98.50
4635;DHT22;2330;48.158;11.816;2024-02-14T15:46:52;12.10;98.50
4635;DHT22;2330;48.158;11.816;2024-02-14T15:49:19;12.00;98.50
4635;DHT22;2330;48.158;11.816;2024-02-14T15:51:46;12.00;98.50
4635;DHT22;2330;48.158;11.816;2024-02-14T15:54:14;12.00;98.50
4635;DHT22;2330;48.158;11.816;2024-02-14T15:56:41;12.00;98.50
4635;DHT22;2330;48.158;11.816;2024-02-14T15:59:08;12.00;98.50
4635;DHT22;2330;48.158;11.816;2024-02-14T16:01:35;12.00;98.50
4635;DHT22;2330;48.158;11.816;2024-02-14T16:04:02;12.00;98.50
4635;DHT22;2330;48.158;11.816;2024-02-14T16:06:29;12.00;98.50
4635;DHT22;2330;48.158;11.816;2024-02-14T16:08:56;11.90;98.50